sensor_id;sensor_type;location;lat;lon;timestamp;pressure;altitude;pressure_sealevel;temperature;humidity
70781;BME280;59514;48.810;2.134;2023-04-30T00:01:22;100719.41;;;9.83;83.71
70781;BME280;59514;48.810;2.134;2023-04-30T00:03:48;100726.44;;;9.84;83.83
70781;BME280;59514;48.810;2.134;2023-04-30T00:06:14;100725.22;;;9.80;84.02
70781;BME280;59514;48.810;2.134;2023-04-30T00:08:40;100718.78;;;9.81;83.42
70781;BME280;59514;48.810;2.134;2023-04-30T00:11:05;100719.00;;;9.79;83.63
70781;BME280;59514;48.810;2.134;2023-04-30T00:13:30;100719.00;;;9.79;84.73
70781;BME280;59514;48.810;2.134;2023-04-30T00:15:56;100722.31;;;9.81;83.46
70781;BME280;59514;48.810;2.134;2023-04-30T00:18:21;100714.88;;;9.83;83.13
70781;BME280;59514;48.810;2.134;2023-04-30T00:20:46;100720.00;;;9.85;83.09
70781;BME280;59514;48.810;2.134;2023-04-30T00:23:11;100713.63;;;9.86;83.28
70781;BME280;59514;48.810;2.134;2023-04-30T00:25:37;100714.25;;;9.88;83.73
70781;BME280;59514;48.810;2.134;2023-04-30T00:28:02;100711.78;;;9.86;83.58
70781;BME280;59514;48.810;2.134;2023-04-30T00:30:28;100707.41;;;9.92;83.01
70781;BME280;59514;48.810;2.134;2023-04-30T00:32:53;100709.50;;;9.83;83.70
70781;BME280;59514;48.810;2.134;2023-04-30T00:35:18;100703.13;;;9.78;85.03
70781;BME280;59514;48.810;2.134;2023-04-30T00:37:43;100705.22;;;9.76;84.71
70781;BME280;59514;48.810;2.134;2023-04-30T00:40:09;100700.88;;;9.75;84.79
70781;BME280;59514;48.810;2.134;2023-04-30T00:42:35;100707.50;;;9.72;84.19
70781;BME280;59514;48.810;2.134;2023-04-30T00:45:00;100696.34;;;9.69;85.64
70781;BME280;59514;48.810;2.134;2023-04-30T00:47:25;100694.94;;;9.66;85.74
70781;BME280;59514;48.810;2.134;2023-04-30T00:49:51;100686.47;;;9.63;84.98
70781;BME280;59514;48.810;2.134;2023-04-30T00:52:16;100693.25;;;9.72;85.12
70781;BME280;59514;48.810;2.134;2023-04-30T00:54:41;100694.09;;;9.72;84.91
70781;BME280;59514;48.810;2.134;2023-04-30T00:57:08;100690.59;;;9.65;84.76
70781;BME280;59514;48.810;2.134;2023-04-30T00:59:35;100686.88;;;9.66;85.54
70781;BME280;59514;48.810;2.134;2023-04-30T01:02:01;100699.69;;;9.64;85.08
70781;BME280;59514;48.810;2.134;2023-04-30T01:04:27;100696.78;;;9.59;85.50
70781;BME280;59514;48.810;2.134;2023-04-30T01:06:52;100701.75;;;9.49;86.19
70781;BME280;59514;48.810;2.134;2023-04-30T01:09:18;100696.84;;;9.39;87.14
70781;BME280;59514;48.810;2.134;2023-04-30T01:14:28;100689.22;;;9.36;86.50
70781;BME280;59514;48.810;2.134;2023-04-30T01:17:16;100689.03;;;9.31;86.62
70781;BME280;59514;48.810;2.134;2023-04-30T01:19:42;100689.03;;;9.25;86.75
70781;BME280;59514;48.810;2.134;2023-04-30T01:30:49;100672.59;;;9.08;88.00
70781;BME280;59514;48.810;2.134;2023-04-30T01:33:14;100670.53;;;9.10;88.60
70781;BME280;59514;48.810;2.134;2023-04-30T01:41:21;100670.53;;;9.10;91.38
70781;BME280;59514;48.810;2.134;2023-04-30T01:44:05;100672.97;;;9.12;90.16
70781;BME280;59514;48.810;2.134;2023-04-30T01:46:34;100673.81;;;9.12;90.15
70781;BME280;59514;48.810;2.134;2023-04-30T01:51:48;100672.38;;;9.16;89.61
70781;BME280;59514;48.810;2.134;2023-04-30T01:54:23;100669.69;;;9.16;90.43
70781;BME280;59514;48.810;2.134;2023-04-30T01:57:20;100675.66;;;9.18;90.97
70781;BME280;59514;48.810;2.134;2023-04-30T01:59:46;100676.50;;;9.12;89.99
70781;BME280;59514;48.810;2.134;2023-04-30T02:02:12;100676.69;;;9.11;89.74
70781;BME280;59514;48.810;2.134;2023-04-30T02:04:37;100672.75;;;9.13;90.86
70781;BME280;59514;48.810;2.134;2023-04-30T02:07:02;100671.13;;;9.12;89.51
70781;BME280;59514;48.810;2.134;2023-04-30T02:09:27;100674.22;;;9.09;89.42
70781;BME280;59514;48.810;2.134;2023-04-30T02:11:53;100675.88;;;8.97;90.01
70781;BME280;59514;48.810;2.134;2023-04-30T02:14:18;100683.28;;;8.95;89.95
70781;BME280;59514;48.810;2.134;2023-04-30T02:16:43;100680.41;;;8.90;90.21
70781;BME280;59514;48.810;2.134;2023-04-30T02:19:09;100681.44;;;8.83;90.66
70781;BME280;59514;48.810;2.134;2023-04-30T02:21:35;100680.84;;;8.81;91.06
70781;BME280;59514;48.810;2.134;2023-04-30T02:24:00;100680.41;;;8.77;91.52
70781;BME280;59514;48.810;2.134;2023-04-30T02:26:25;100678.75;;;8.76;90.88
70781;BME280;59514;48.810;2.134;2023-04-30T02:28:51;100684.13;;;8.76;91.12
70781;BME280;59514;48.810;2.134;2023-04-30T02:31:16;100680.00;;;8.74;91.14
70781;BME280;59514;48.810;2.134;2023-04-30T02:33:42;100681.63;;;8.61;92.67
70781;BME280;59514;48.810;2.134;2023-04-30T02:36:07;100685.53;;;8.59;93.74
70781;BME280;59514;48.810;2.134;2023-04-30T02:38:32;100686.56;;;8.58;92.07
70781;BME280;59514;48.810;2.134;2023-04-30T02:40:57;100684.94;;;8.57;92.39
70781;BME280;59514;48.810;2.134;2023-04-30T02:43:23;100683.06;;;8.51;92.44
70781;BME280;59514;48.810;2.134;2023-04-30T02:45:48;100688.00;;;8.47;94.72
70781;BME280;59514;48.810;2.134;2023-04-30T02:48:14;100690.69;;;8.41;94.15
70781;BME280;59514;48.810;2.134;2023-04-30T02:50:39;100689.63;;;8.42;93.82
70781;BME280;59514;48.810;2.134;2023-04-30T02:53:04;100686.53;;;8.38;93.80
70781;BME280;59514;48.810;2.134;2023-04-30T02:55:30;100687.56;;;8.37;93.30
70781;BME280;59514;48.810;2.134;2023-04-30T02:57:56;100690.84;;;8.39;94.03
70781;BME280;59514;48.810;2.134;2023-04-30T03:00:21;100686.34;;;8.40;95.53
70781;BME280;59514;48.810;2.134;2023-04-30T03:02:47;100686.13;;;8.35;94.36
70781;BME280;59514;48.810;2.134;2023-04-30T03:05:13;100677.50;;;8.33;94.59
70781;BME280;59514;48.810;2.134;2023-04-30T03:07:39;100678.66;;;8.24;94.94
70781;BME280;59514;48.810;2.134;2023-04-30T03:10:05;100683.78;;;8.19;96.81
70781;BME280;59514;48.810;2.134;2023-04-30T03:12:30;100674.66;;;7.94;98.78
70781;BME280;59514;48.810;2.134;2023-04-30T03:14:55;100686.41;;;7.99;96.50
70781;BME280;59514;48.810;2.134;2023-04-30T03:17:21;100683.91;;;7.91;97.17
70781;BME280;59514;48.810;2.134;2023-04-30T03:19:47;100685.06;;;7.75;98.38
70781;BME280;59514;48.810;2.134;2023-04-30T03:22:12;100683.22;;;7.69;98.45
70781;BME280;59514;48.810;2.134;2023-04-30T03:24:38;100687.94;;;7.67;98.34
70781;BME280;59514;48.810;2.134;2023-04-30T03:27:03;100683.78;;;7.65;98.57
70781;BME280;59514;48.810;2.134;2023-04-30T03:29:28;100685.41;;;7.59;99.17
70781;BME280;59514;48.810;2.134;2023-04-30T03:31:54;100685.78;;;7.56;99.23
70781;BME280;59514;48.810;2.134;2023-04-30T03:34:19;100678.97;;;7.47;99.75
70781;BME280;59514;48.810;2.134;2023-04-30T03:36:44;100678.34;;;7.45;100.00
70781;BME280;59514;48.810;2.134;2023-04-30T03:39:10;100678.97;;;7.47;99.95
70781;BME280;59514;48.810;2.134;2023-04-30T03:41:35;100679.97;;;7.46;100.00
70781;BME280;59514;48.810;2.134;2023-04-30T03:44:00;100683.69;;;7.45;99.59
70781;BME280;59514;48.810;2.134;2023-04-30T03:46:26;100687.38;;;7.44;100.00
70781;BME280;59514;48.810;2.134;2023-04-30T03:48:51;100690.19;;;7.36;100.00
70781;BME280;59514;48.810;2.134;2023-04-30T03:51:18;100687.94;;;7.33;100.00
70781;BME280;59514;48.810;2.134;2023-04-30T03:53:44;100684.00;;;7.29;100.00
70781;BME280;59514;48.810;2.134;2023-04-30T03:56:10;100683.59;;;7.32;100.00
70781;BME280;59514;48.810;2.134;2023-04-30T03:58:35;100677.03;;;7.35;100.00
70781;BME280;59514;48.810;2.134;2023-04-30T04:01:01;100686.53;;;7.37;100.00
70781;BME280;59514;48.810;2.134;2023-04-30T04:03:27;100673.34;;;7.36;99.79
70781;BME280;59514;48.810;2.134;2023-04-30T04:05:52;100677.63;;;7.30;100.00
70781;BME280;59514;48.810;2.134;2023-04-30T04:08:18;100673.53;;;7.28;100.00
70781;BME280;59514;48.810;2.134;2023-04-30T04:10:43;100671.22;;;7.25;100.00
70781;BME280;59514;48.810;2.134;2023-04-30T04:13:08;100673.28;;;7.23;100.00
70781;BME280;59514;48.810;2.134;2023-04-30T04:15:34;100677.78;;;7.22;100.00
70781;BME280;59514;48.810;2.134;2023-04-30T04:17:59;100676.16;;;7.21;100.00
70781;BME280;59514;48.810;2.134;2023-04-30T04:20:24;100673.84;;;7.18;100.00
70781;BME280;59514;48.810;2.134;2023-04-30T04:22:51;100676.00;;;7.02;100.00
70781;BME280;59514;48.810;2.134;2023-04-30T04:25:16;100681.91;;;6.97;100.00
70781;BME280;59514;48.810;2.134;2023-04-30T04:27:42;100681.28;;;6.95;100.00
70781;BME280;59514;48.810;2.134;2023-04-30T04:30:08;100681.66;;;6.92;100.00
70781;BME280;59514;48.810;2.134;2023-04-30T04:32:33;100681.63;;;6.85;100.00
70781;BME280;59514;48.810;2.134;2023-04-30T04:35:06;100686.91;;;6.79;100.00
70781;BME280;59514;48.810;2.134;2023-04-30T04:37:31;100684.00;;;6.74;100.00
70781;BME280;59514;48.810;2.134;2023-04-30T04:39:57;100680.69;;;6.72;100.00
70781;BME280;59514;48.810;2.134;2023-04-30T04:42:22;100692.78;;;6.68;100.00
70781;BME280;59514;48.810;2.134;2023-04-30T04:44:47;100692.13;;;6.66;100.00
70781;BME280;59514;48.810;2.134;2023-04-30T04:47:13;100689.63;;;6.64;100.00
70781;BME280;59514;48.810;2.134;2023-04-30T04:49:38;100687.72;;;6.58;100.00
70781;BME280;59514;48.810;2.134;2023-04-30T04:52:04;100692.28;;;6.58;100.00
70781;BME280;59514;48.810;2.134;2023-04-30T04:54:29;100693.28;;;6.57;100.00
70781;BME280;59514;48.810;2.134;2023-04-30T04:56:55;100696.97;;;6.56;100.00
70781;BME280;59514;48.810;2.134;2023-04-30T04:59:20;100698.59;;;6.57;100.00
70781;BME280;59514;48.810;2.134;2023-04-30T05:01:46;100700.63;;;6.55;100.00
70781;BME280;59514;48.810;2.134;2023-04-30T05:04:11;100700.28;;;6.58;100.00
70781;BME280;59514;48.810;2.134;2023-04-30T05:06:38;100703.09;;;6.56;100.00
70781;BME280;59514;48.810;2.134;2023-04-30T05:09:03;100700.84;;;6.53;100.00
70781;BME280;59514;48.810;2.134;2023-04-30T05:11:32;100701.91;;;6.59;100.00
70781;BME280;59514;48.810;2.134;2023-04-30T05:13:58;100701.16;;;6.65;100.00
70781;BME280;59514;48.810;2.134;2023-04-30T05:16:23;100704.88;;;6.70;100.00
70781;BME280;59514;48.810;2.134;2023-04-30T05:18:48;100709.44;;;6.76;100.00
70781;BME280;59514;48.810;2.134;2023-04-30T05:21:14;100716.31;;;6.85;100.00
70781;BME280;59514;48.810;2.134;2023-04-30T05:23:39;100707.09;;;6.88;100.00
70781;BME280;59514;48.810;2.134;2023-04-30T05:26:05;100714.94;;;6.96;100.00
70781;BME280;59514;48.810;2.134;2023-04-30T05:28:30;100705.81;;;7.05;100.00
70781;BME280;59514;48.810;2.134;2023-04-30T05:30:55;100712.41;;;7.09;100.00
70781;BME280;59514;48.810;2.134;2023-04-30T05:33:21;100707.69;;;7.11;100.00
70781;BME280;59514;48.810;2.134;2023-04-30T05:35:46;100713.03;;;7.11;100.00
70781;BME280;59514;48.810;2.134;2023-04-30T05:38:11;100712.78;;;7.06;100.00
70781;BME280;59514;48.810;2.134;2023-04-30T05:40:37;100712.69;;;6.93;100.00
70781;BME280;59514;48.810;2.134;2023-04-30T05:43:02;100713.25;;;6.88;100.00
70781;BME280;59514;48.810;2.134;2023-04-30T05:45:27;100722.72;;;6.91;100.00
70781;BME280;59514;48.810;2.134;2023-04-30T05:47:52;100720.28;;;6.96;100.00
70781;BME280;59514;48.810;2.134;2023-04-30T05:50:18;100712.13;;;6.97;100.00
70781;BME280;59514;48.810;2.134;2023-04-30T05:52:43;100713.19;;;7.03;100.00
70781;BME280;59514;48.810;2.134;2023-04-30T05:55:08;100711.78;;;7.07;100.00
70781;BME280;59514;48.810;2.134;2023-04-30T05:57:35;100707.75;;;7.18;100.00
70781;BME280;59514;48.810;2.134;2023-04-30T06:00:00;100717.06;;;7.28;100.00
70781;BME280;59514;48.810;2.134;2023-04-30T06:02:25;100709.53;;;7.38;100.00
70781;BME280;59514;48.810;2.134;2023-04-30T06:04:51;100711.25;;;7.52;100.00
70781;BME280;59514;48.810;2.134;2023-04-30T06:07:16;100717.06;;;7.62;100.00
70781;BME280;59514;48.810;2.134;2023-04-30T06:09:41;100719.78;;;7.69;100.00
70781;BME280;59514;48.810;2.134;2023-04-30T06:12:07;100720.44;;;7.77;100.00
70781;BME280;59514;48.810;2.134;2023-04-30T06:14:32;100717.63;;;7.92;100.00
70781;BME280;59514;48.810;2.134;2023-04-30T06:16:57;100724.66;;;8.00;100.00
70781;BME280;59514;48.810;2.134;2023-04-30T06:19:23;100727.16;;;8.08;100.00
70781;BME280;59514;48.810;2.134;2023-04-30T06:21:48;100724.28;;;8.09;100.00
70781;BME280;59514;48.810;2.134;2023-04-30T06:24:13;100721.63;;;8.16;100.00
70781;BME280;59514;48.810;2.134;2023-04-30T06:26:38;100721.50;;;8.30;100.00
70781;BME280;59514;48.810;2.134;2023-04-30T06:29:04;100718.63;;;8.32;100.00
70781;BME280;59514;48.810;2.134;2023-04-30T06:31:29;100719.66;;;8.37;100.00
70781;BME280;59514;48.810;2.134;2023-04-30T06:33:55;100706.72;;;8.47;100.00
70781;BME280;59514;48.810;2.134;2023-04-30T06:36:20;100714.38;;;8.57;100.00
70781;BME280;59514;48.810;2.134;2023-04-30T06:38:45;100714.78;;;8.67;100.00
70781;BME280;59514;48.810;2.134;2023-04-30T06:41:11;100709.03;;;8.70;100.00
70781;BME280;59514;48.810;2.134;2023-04-30T06:43:37;100709.22;;;8.75;100.00
70781;BME280;59514;48.810;2.134;2023-04-30T06:46:02;100717.28;;;8.88;100.00
70781;BME280;59514;48.810;2.134;2023-04-30T06:48:28;100703.47;;;8.98;100.00
70781;BME280;59514;48.810;2.134;2023-04-30T06:50:53;100708.81;;;9.11;99.79
70781;BME280;59514;48.810;2.134;2023-04-30T06:53:18;100710.47;;;9.18;99.96
70781;BME280;59514;48.810;2.134;2023-04-30T06:55:44;100716.25;;;9.28;99.23
70781;BME280;59514;48.810;2.134;2023-04-30T06:58:12;100710.06;;;9.34;99.38
70781;BME280;59514;48.810;2.134;2023-04-30T07:00:37;100718.25;;;9.52;98.62
70781;BME280;59514;48.810;2.134;2023-04-30T07:03:03;100720.09;;;9.58;96.91
70781;BME280;59514;48.810;2.134;2023-04-30T07:05:31;100721.91;;;9.84;97.11
70781;BME280;59514;48.810;2.134;2023-04-30T07:07:59;100707.44;;;9.79;95.24
70781;BME280;59514;48.810;2.134;2023-04-30T07:10:25;100708.22;;;9.99;96.38
70781;BME280;59514;48.810;2.134;2023-04-30T07:12:50;100720.50;;;10.26;93.99
70781;BME280;59514;48.810;2.134;2023-04-30T07:15:16;100719.63;;;10.32;92.66
70781;BME280;59514;48.810;2.134;2023-04-30T07:17:41;100715.94;;;10.33;92.00
70781;BME280;59514;48.810;2.134;2023-04-30T07:20:07;100715.94;;;10.33;93.23
70781;BME280;59514;48.810;2.134;2023-04-30T07:22:33;100716.31;;;10.36;93.67
70781;BME280;59514;48.810;2.134;2023-04-30T07:24:58;100717.13;;;10.37;93.75
70781;BME280;59514;48.810;2.134;2023-04-30T07:27:25;100715.44;;;10.43;92.41
70781;BME280;59514;48.810;2.134;2023-04-30T07:29:50;100722.25;;;10.45;92.76
70781;BME280;59514;48.810;2.134;2023-04-30T07:32:16;100719.94;;;10.55;92.94
70781;BME280;59514;48.810;2.134;2023-04-30T07:34:41;100716.13;;;10.69;92.04
70781;BME280;59514;48.810;2.134;2023-04-30T07:37:07;100720.25;;;10.72;89.59
70781;BME280;59514;48.810;2.134;2023-04-30T07:39:33;100713.50;;;10.87;91.89
70781;BME280;59514;48.810;2.134;2023-04-30T07:41:58;100709.22;;;11.04;88.32
70781;BME280;59514;48.810;2.134;2023-04-30T07:44:23;100710.88;;;11.05;90.19
70781;BME280;59514;48.810;2.134;2023-04-30T07:46:49;100714.19;;;11.25;88.70
70781;BME280;59514;48.810;2.134;2023-04-30T07:49:14;100705.75;;;11.22;86.85
70781;BME280;59514;48.810;2.134;2023-04-30T07:51:39;100703.63;;;11.31;88.84
70781;BME280;59514;48.810;2.134;2023-04-30T07:54:06;100707.22;;;11.43;86.78
70781;BME280;59514;48.810;2.134;2023-04-30T07:56:31;100709.63;;;11.51;87.66
70781;BME280;59514;48.810;2.134;2023-04-30T07:58:57;100708.03;;;11.68;85.88
70781;BME280;59514;48.810;2.134;2023-04-30T08:01:22;100709.38;;;11.95;86.59
70781;BME280;59514;48.810;2.134;2023-04-30T08:03:47;100717.59;;;12.00;84.58
70781;BME280;59514;48.810;2.134;2023-04-30T08:06:13;100708.25;;;12.02;84.68
70781;BME280;59514;48.810;2.134;2023-04-30T08:08:38;100711.72;;;12.21;83.10
70781;BME280;59514;48.810;2.134;2023-04-30T08:11:04;100716.94;;;12.34;84.06
70781;BME280;59514;48.810;2.134;2023-04-30T08:13:29;100704.91;;;12.37;81.74
70781;BME280;59514;48.810;2.134;2023-04-30T08:15:55;100700.69;;;12.41;81.22
70781;BME280;59514;48.810;2.134;2023-04-30T08:18:20;100697.34;;;12.27;82.23
70781;BME280;59514;48.810;2.134;2023-04-30T08:20:45;100697.84;;;12.36;81.04
70781;BME280;59514;48.810;2.134;2023-04-30T08:23:11;100707.94;;;12.40;80.61
70781;BME280;59514;48.810;2.134;2023-04-30T08:25:36;100711.00;;;12.44;81.54
70781;BME280;59514;48.810;2.134;2023-04-30T08:28:01;100714.97;;;12.41;80.72
70781;BME280;59514;48.810;2.134;2023-04-30T08:30:26;100713.69;;;12.44;81.28
70781;BME280;59514;48.810;2.134;2023-04-30T08:32:52;100711.09;;;12.37;82.34
70781;BME280;59514;48.810;2.134;2023-04-30T08:35:17;100711.94;;;12.49;84.31
70781;BME280;59514;48.810;2.134;2023-04-30T08:37:43;100712.53;;;12.51;82.18
70781;BME280;59514;48.810;2.134;2023-04-30T08:40:09;100709.53;;;12.59;81.82
70781;BME280;59514;48.810;2.134;2023-04-30T08:42:36;100714.81;;;12.66;80.99
70781;BME280;59514;48.810;2.134;2023-04-30T08:45:07;100712.25;;;12.71;80.76
70781;BME280;59514;48.810;2.134;2023-04-30T08:47:35;100713.25;;;12.88;82.35
70781;BME280;59514;48.810;2.134;2023-04-30T08:50:01;100718.06;;;12.97;83.20
70781;BME280;59514;48.810;2.134;2023-04-30T08:52:27;100720.06;;;13.02;80.61
70781;BME280;59514;48.810;2.134;2023-04-30T08:54:56;100714.97;;;13.12;79.90
70781;BME280;59514;48.810;2.134;2023-04-30T08:57:22;100709.56;;;13.24;81.74
70781;BME280;59514;48.810;2.134;2023-04-30T08:59:48;100713.53;;;13.33;81.46
70781;BME280;59514;48.810;2.134;2023-04-30T09:02:13;100705.81;;;13.48;76.75
70781;BME280;59514;48.810;2.134;2023-04-30T09:04:38;100711.09;;;13.66;80.49
70781;BME280;59514;48.810;2.134;2023-04-30T09:07:04;100714.13;;;13.69;72.93
70781;BME280;59514;48.810;2.134;2023-04-30T09:09:37;100705.31;;;13.62;70.92
70781;BME280;59514;48.810;2.134;2023-04-30T09:12:12;100703.44;;;13.74;71.97
70781;BME280;59514;48.810;2.134;2023-04-30T09:14:38;100700.13;;;13.84;73.71
70781;BME280;59514;48.810;2.134;2023-04-30T09:17:05;100702.81;;;13.96;77.81
70781;BME280;59514;48.810;2.134;2023-04-30T09:19:30;100700.78;;;14.03;78.03
70781;BME280;59514;48.810;2.134;2023-04-30T09:21:56;100706.38;;;14.13;71.21
70781;BME280;59514;48.810;2.134;2023-04-30T09:24:22;100702.66;;;14.14;71.04
70781;BME280;59514;48.810;2.134;2023-04-30T09:26:49;100702.78;;;14.07;69.69
70781;BME280;59514;48.810;2.134;2023-04-30T09:29:14;100709.34;;;14.11;68.59
70781;BME280;59514;48.810;2.134;2023-04-30T09:31:44;100702.72;;;14.30;70.44
70781;BME280;59514;48.810;2.134;2023-04-30T09:34:11;100704.19;;;14.38;70.09
70781;BME280;59514;48.810;2.134;2023-04-30T09:36:36;100700.41;;;14.50;69.12
70781;BME280;59514;48.810;2.134;2023-04-30T09:39:11;100702.91;;;14.68;66.46
70781;BME280;59514;48.810;2.134;2023-04-30T09:41:38;100695.44;;;14.76;69.23
70781;BME280;59514;48.810;2.134;2023-04-30T09:44:03;100697.38;;;14.63;64.15
70781;BME280;59514;48.810;2.134;2023-04-30T09:46:30;100694.47;;;14.82;66.78
70781;BME280;59514;48.810;2.134;2023-04-30T09:48:58;100693.88;;;14.80;70.68
70781;BME280;59514;48.810;2.134;2023-04-30T09:51:24;100693.72;;;14.86;70.99
70781;BME280;59514;48.810;2.134;2023-04-30T09:53:50;100686.13;;;15.00;70.10
70781;BME280;59514;48.810;2.134;2023-04-30T09:56:19;100692.84;;;15.14;66.52
70781;BME280;59514;48.810;2.134;2023-04-30T09:58:50;100684.16;;;15.12;64.27
70781;BME280;59514;48.810;2.134;2023-04-30T10:01:17;100683.56;;;15.10;65.91
70781;BME280;59514;48.810;2.134;2023-04-30T10:03:43;100677.41;;;15.31;64.19
70781;BME280;59514;48.810;2.134;2023-04-30T10:06:12;100689.00;;;15.43;62.50
70781;BME280;59514;48.810;2.134;2023-04-30T10:08:50;100675.00;;;15.51;61.34
70781;BME280;59514;48.810;2.134;2023-04-30T10:11:19;100676.66;;;15.52;62.68
70781;BME280;59514;48.810;2.134;2023-04-30T10:14:09;100671.31;;;15.57;62.04
70781;BME280;59514;48.810;2.134;2023-04-30T10:16:58;100666.81;;;15.84;62.14
70781;BME280;59514;48.810;2.134;2023-04-30T10:19:30;100678.34;;;15.96;59.30
70781;BME280;59514;48.810;2.134;2023-04-30T10:21:58;100679.69;;;15.77;62.80
70781;BME280;59514;48.810;2.134;2023-04-30T10:24:26;100671.69;;;15.66;72.11
70781;BME280;59514;48.810;2.134;2023-04-30T10:26:51;100670.34;;;16.06;68.86
70781;BME280;59514;48.810;2.134;2023-04-30T10:29:17;100660.03;;;16.57;68.54
70781;BME280;59514;48.810;2.134;2023-04-30T10:31:47;100655.69;;;16.07;59.85
70781;BME280;59514;48.810;2.134;2023-04-30T10:37:23;100655.03;;;17.07;59.96
70781;BME280;59514;48.810;2.134;2023-04-30T10:39:51;100650.31;;;17.34;61.13
70781;BME280;59514;48.810;2.134;2023-04-30T10:42:17;100644.41;;;17.89;69.59
70781;BME280;59514;48.810;2.134;2023-04-30T10:44:43;100647.69;;;17.96;58.02
70781;BME280;59514;48.810;2.134;2023-04-30T10:47:08;100645.53;;;18.03;59.73
70781;BME280;59514;48.810;2.134;2023-04-30T10:49:34;100643.22;;;17.65;65.62
70781;BME280;59514;48.810;2.134;2023-04-30T10:52:01;100640.69;;;17.11;58.47
70781;BME280;59514;48.810;2.134;2023-04-30T10:54:34;100639.13;;;16.84;61.26
70781;BME280;59514;48.810;2.134;2023-04-30T10:57:16;100630.94;;;16.74;59.31
70781;BME280;59514;48.810;2.134;2023-04-30T11:02:43;100632.81;;;18.34;55.79
70781;BME280;59514;48.810;2.134;2023-04-30T11:05:10;100625.00;;;18.62;54.20
70781;BME280;59514;48.810;2.134;2023-04-30T11:07:36;100632.25;;;18.17;55.19
70781;BME280;59514;48.810;2.134;2023-04-30T11:10:01;100632.28;;;18.42;65.89
70781;BME280;59514;48.810;2.134;2023-04-30T11:12:28;100624.13;;;18.42;63.13
70781;BME280;59514;48.810;2.134;2023-04-30T11:15:06;100622.44;;;18.00;55.04
70781;BME280;59514;48.810;2.134;2023-04-30T11:17:32;100618.91;;;18.10;56.96
70781;BME280;59514;48.810;2.134;2023-04-30T11:20:00;100615.75;;;18.43;55.33
70781;BME280;59514;48.810;2.134;2023-04-30T11:22:27;100620.81;;;18.09;54.60
70781;BME280;59514;48.810;2.134;2023-04-30T11:27:25;100599.94;;;19.21;60.05
70781;BME280;59514;48.810;2.134;2023-04-30T11:29:51;100609.38;;;19.53;48.49
70781;BME280;59514;48.810;2.134;2023-04-30T11:32:18;100598.56;;;19.33;49.68
70781;BME280;59514;48.810;2.134;2023-04-30T11:34:44;100594.19;;;19.27;58.53
70781;BME280;59514;48.810;2.134;2023-04-30T11:37:22;100592.31;;;19.18;53.36
70781;BME280;59514;48.810;2.134;2023-04-30T11:39:49;100588.53;;;18.99;62.75
70781;BME280;59514;48.810;2.134;2023-04-30T11:42:16;100599.19;;;18.85;52.18
70781;BME280;59514;48.810;2.134;2023-04-30T11:44:42;100599.72;;;18.87;59.83
70781;BME280;59514;48.810;2.134;2023-04-30T11:47:07;100599.44;;;18.83;59.84
70781;BME280;59514;48.810;2.134;2023-04-30T11:49:33;100598.63;;;18.68;63.20
70781;BME280;59514;48.810;2.134;2023-04-30T11:51:58;100585.53;;;18.25;55.48
70781;BME280;59514;48.810;2.134;2023-04-30T11:54:23;100580.66;;;18.37;57.80
70781;BME280;59514;48.810;2.134;2023-04-30T11:56:49;100583.34;;;18.42;61.35
70781;BME280;59514;48.810;2.134;2023-04-30T11:59:16;100589.34;;;18.29;62.11
70781;BME280;59514;48.810;2.134;2023-04-30T12:01:42;100579.53;;;18.38;60.52
70781;BME280;59514;48.810;2.134;2023-04-30T12:04:08;100581.75;;;18.56;61.13
70781;BME280;59514;48.810;2.134;2023-04-30T12:06:34;100583.13;;;18.53;53.77
70781;BME280;59514;48.810;2.134;2023-04-30T12:09:01;100584.50;;;18.51;59.25
70781;BME280;59514;48.810;2.134;2023-04-30T12:11:34;100582.59;;;18.56;61.61
70781;BME280;59514;48.810;2.134;2023-04-30T12:14:01;100576.28;;;18.21;52.27
70781;BME280;59514;48.810;2.134;2023-04-30T12:16:38;100580.06;;;18.15;50.13
70781;BME280;59514;48.810;2.134;2023-04-30T12:19:04;100573.00;;;18.24;58.08
70781;BME280;59514;48.810;2.134;2023-04-30T12:21:29;100570.81;;;18.16;61.35
70781;BME280;59514;48.810;2.134;2023-04-30T12:23:55;100565.41;;;18.26;53.59
70781;BME280;59514;48.810;2.134;2023-04-30T12:26:21;100568.66;;;18.28;62.45
70781;BME280;59514;48.810;2.134;2023-04-30T12:28:47;100571.38;;;18.13;53.94
70781;BME280;59514;48.810;2.134;2023-04-30T12:31:14;100571.13;;;18.19;60.47
70781;BME280;59514;48.810;2.134;2023-04-30T12:33:41;100568.63;;;18.07;55.92
70781;BME280;59514;48.810;2.134;2023-04-30T12:36:09;100567.00;;;17.96;55.22
70781;BME280;59514;48.810;2.134;2023-04-30T12:38:35;100570.22;;;17.88;51.95
70781;BME280;59514;48.810;2.134;2023-04-30T12:41:03;100573.28;;;18.17;54.29
70781;BME280;59514;48.810;2.134;2023-04-30T12:43:29;100563.75;;;18.15;54.12
70781;BME280;59514;48.810;2.134;2023-04-30T12:45:54;100567.00;;;18.12;51.60
70781;BME280;59514;48.810;2.134;2023-04-30T12:48:24;100569.44;;;17.98;51.17
70781;BME280;59514;48.810;2.134;2023-04-30T12:51:00;100578.69;;;18.02;50.26
70781;BME280;59514;48.810;2.134;2023-04-30T12:53:26;100568.69;;;18.33;55.16
70781;BME280;59514;48.810;2.134;2023-04-30T12:56:07;100570.84;;;18.21;50.48
70781;BME280;59514;48.810;2.134;2023-04-30T12:58:36;100572.47;;;18.27;57.35
70781;BME280;59514;48.810;2.134;2023-04-30T13:01:02;100569.19;;;18.15;58.02
70781;BME280;59514;48.810;2.134;2023-04-30T13:03:27;100566.75;;;18.18;58.02
70781;BME280;59514;48.810;2.134;2023-04-30T13:05:53;100562.94;;;18.09;57.13
70781;BME280;59514;48.810;2.134;2023-04-30T13:08:19;100568.38;;;18.24;60.54
70781;BME280;59514;48.810;2.134;2023-04-30T13:10:46;100563.22;;;18.38;55.30
70781;BME280;59514;48.810;2.134;2023-04-30T13:13:12;100564.63;;;18.35;60.07
70781;BME280;59514;48.810;2.134;2023-04-30T13:15:38;100559.41;;;18.08;56.14
70781;BME280;59514;48.810;2.134;2023-04-30T13:18:04;100559.63;;;17.92;51.33